sensor_id;sensor_type;location;lat;lon;timestamp;P1;durP1;ratioP1;P2;durP2;ratioP2
13079;SDS011;6606;49.154;9.280;2022-11-15T00:01:06;4.67;;;2.23;;
13079;SDS011;6606;49.154;9.280;2022-11-15T00:03:52;3.13;;;1.90;;
13079;SDS011;6606;49.154;9.280;2022-11-15T00:06:37;2.80;;;1.67;;
13079;SDS011;6606;49.154;9.280;2022-11-15T00:09:22;2.73;;;1.90;;
13079;SDS011;6606;49.154;9.280;2022-11-15T00:12:07;3.13;;;2.07;;
13079;SDS011;6606;49.154;9.280;2022-11-15T00:14:54;3.13;;;1.80;;
13079;SDS011;6606;49.154;9.280;2022-11-15T00:17:40;3.73;;;1.90;;
13079;SDS011;6606;49.154;9.280;2022-11-15T00:20:25;3.33;;;1.80;;
13079;SDS011;6606;49.154;9.280;2022-11-15T00:23:10;3.07;;;1.60;;
13079;SDS011;6606;49.154;9.280;2022-11-15T00:25:56;2.03;;;1.67;;
13079;SDS011;6606;49.154;9.280;2022-11-15T00:28:42;4.37;;;1.60;;
13079;SDS011;6606;49.154;9.280;2022-11-15T00:31:28;2.77;;;2.00;;
13079;SDS011;6606;49.154;9.280;2022-11-15T00:34:13;2.93;;;1.97;;
13079;SDS011;6606;49.154;9.280;2022-11-15T00:36:59;4.03;;;1.80;;
13079;SDS011;6606;49.154;9.280;2022-11-15T00:39:44;2.40;;;1.87;;
13079;SDS011;6606;49.154;9.280;2022-11-15T00:42:30;3.13;;;1.60;;
13079;SDS011;6606;49.154;9.280;2022-11-15T00:45:15;4.27;;;1.87;;
13079;SDS011;6606;49.154;9.280;2022-11-15T00:48:02;3.60;;;1.60;;
13079;SDS011;6606;49.154;9.280;2022-11-15T00:50:47;2.47;;;1.63;;
13079;SDS011;6606;49.154;9.280;2022-11-15T00:53:33;5.27;;;1.90;;
13079;SDS011;6606;49.154;9.280;2022-11-15T00:56:18;2.57;;;1.77;;
13079;SDS011;6606;49.154;9.280;2022-11-15T00:59:03;3.33;;;2.00;;
13079;SDS011;6606;49.154;9.280;2022-11-15T01:01:49;3.80;;;1.97;;
13079;SDS011;6606;49.154;9.280;2022-11-15T01:04:35;3.03;;;1.80;;
13079;SDS011;6606;49.154;9.280;2022-11-15T01:07:21;4.23;;;1.80;;
13079;SDS011;6606;49.154;9.280;2022-11-15T01:10:06;3.93;;;2.03;;
13079;SDS011;6606;49.154;9.280;2022-11-15T01:12:52;5.20;;;2.07;;
13079;SDS011;6606;49.154;9.280;2022-11-15T01:15:38;4.00;;;1.97;;
13079;SDS011;6606;49.154;9.280;2022-11-15T01:18:25;3.40;;;1.90;;
13079;SDS011;6606;49.154;9.280;2022-11-15T01:21:12;2.80;;;1.80;;
13079;SDS011;6606;49.154;9.280;2022-11-15T01:23:59;2.77;;;1.80;;
13079;SDS011;6606;49.154;9.280;2022-11-15T01:26:44;3.67;;;1.90;;
13079;SDS011;6606;49.154;9.280;2022-11-15T01:29:29;2.77;;;1.83;;
13079;SDS011;6606;49.154;9.280;2022-11-15T01:32:15;3.43;;;1.87;;
13079;SDS011;6606;49.154;9.280;2022-11-15T01:35:00;2.40;;;1.43;;
13079;SDS011;6606;49.154;9.280;2022-11-15T01:37:47;2.87;;;1.90;;
13079;SDS011;6606;49.154;9.280;2022-11-15T01:40:32;4.47;;;1.90;;
13079;SDS011;6606;49.154;9.280;2022-11-15T01:43:22;3.30;;;2.07;;
13079;SDS011;6606;49.154;9.280;2022-11-15T01:46:14;3.67;;;1.80;;
13079;SDS011;6606;49.154;9.280;2022-11-15T01:49:15;4.20;;;2.00;;
13079;SDS011;6606;49.154;9.280;2022-11-15T01:52:05;3.03;;;1.70;;
13079;SDS011;6606;49.154;9.280;2022-11-15T01:54:55;2.77;;;1.67;;
13079;SDS011;6606;49.154;9.280;2022-11-15T01:57:44;2.53;;;1.70;;
13079;SDS011;6606;49.154;9.280;2022-11-15T02:00:34;4.03;;;2.10;;
13079;SDS011;6606;49.154;9.280;2022-11-15T02:03:20;4.33;;;2.13;;
13079;SDS011;6606;49.154;9.280;2022-11-15T02:06:10;5.77;;;1.90;;
13079;SDS011;6606;49.154;9.280;2022-11-15T02:08:55;3.23;;;2.30;;
13079;SDS011;6606;49.154;9.280;2022-11-15T02:11:43;4.20;;;2.20;;
13079;SDS011;6606;49.154;9.280;2022-11-15T02:14:29;4.50;;;2.40;;
13079;SDS011;6606;49.154;9.280;2022-11-15T02:17:29;2.30;;;2.00;;
13079;SDS011;6606;49.154;9.280;2022-11-15T02:20:37;3.17;;;2.00;;
13079;SDS011;6606;49.154;9.280;2022-11-15T02:23:44;5.70;;;2.20;;
13079;SDS011;6606;49.154;9.280;2022-11-15T02:27:16;4.60;;;2.33;;
13079;SDS011;6606;49.154;9.280;2022-11-15T02:30:25;4.27;;;2.10;;
13079;SDS011;6606;49.154;9.280;2022-11-15T02:33:22;2.80;;;2.10;;
13079;SDS011;6606;49.154;9.280;2022-11-15T02:36:14;3.57;;;2.17;;
13079;SDS011;6606;49.154;9.280;2022-11-15T02:39:08;4.60;;;2.10;;
13079;SDS011;6606;49.154;9.280;2022-11-15T02:42:02;2.23;;;1.90;;
13079;SDS011;6606;49.154;9.280;2022-11-15T02:45:11;4.70;;;2.33;;
13079;SDS011;6606;49.154;9.280;2022-11-15T02:48:03;2.83;;;2.00;;
13079;SDS011;6606;49.154;9.280;2022-11-15T02:50:50;3.70;;;1.80;;
13079;SDS011;6606;49.154;9.280;2022-11-15T02:53:36;3.87;;;1.87;;
13079;SDS011;6606;49.154;9.280;2022-11-15T02:56:21;4.70;;;1.93;;
13079;SDS011;6606;49.154;9.280;2022-11-15T02:59:11;4.33;;;2.37;;
13079;SDS011;6606;49.154;9.280;2022-11-15T03:02:08;4.47;;;2.10;;
13079;SDS011;6606;49.154;9.280;2022-11-15T03:05:04;2.63;;;1.90;;
13079;SDS011;6606;49.154;9.280;2022-11-15T03:08:00;2.60;;;1.70;;
13079;SDS011;6606;49.154;9.280;2022-11-15T03:10:52;3.77;;;1.83;;
13079;SDS011;6606;49.154;9.280;2022-11-15T03:13:48;2.77;;;1.87;;
13079;SDS011;6606;49.154;9.280;2022-11-15T03:16:42;4.97;;;1.90;;
13079;SDS011;6606;49.154;9.280;2022-11-15T03:19:33;2.63;;;1.60;;
13079;SDS011;6606;49.154;9.280;2022-11-15T03:22:25;3.60;;;1.80;;
13079;SDS011;6606;49.154;9.280;2022-11-15T03:25:19;2.30;;;1.70;;
13079;SDS011;6606;49.154;9.280;2022-11-15T03:28:08;2.17;;;1.60;;
13079;SDS011;6606;49.154;9.280;2022-11-15T03:30:56;3.43;;;1.60;;
13079;SDS011;6606;49.154;9.280;2022-11-15T03:33:45;3.90;;;1.87;;
13079;SDS011;6606;49.154;9.280;2022-11-15T03:36:30;5.63;;;1.97;;
13079;SDS011;6606;49.154;9.280;2022-11-15T03:39:20;2.97;;;1.60;;
13079;SDS011;6606;49.154;9.280;2022-11-15T03:42:09;2.63;;;1.87;;
13079;SDS011;6606;49.154;9.280;2022-11-15T03:45:12;2.43;;;1.80;;
13079;SDS011;6606;49.154;9.280;2022-11-15T03:48:01;2.53;;;2.03;;
13079;SDS011;6606;49.154;9.280;2022-11-15T03:50:50;4.37;;;2.00;;
13079;SDS011;6606;49.154;9.280;2022-11-15T03:53:35;2.43;;;2.03;;
13079;SDS011;6606;49.154;9.280;2022-11-15T03:56:22;2.97;;;1.97;;
13079;SDS011;6606;49.154;9.280;2022-11-15T03:59:08;4.13;;;2.00;;
13079;SDS011;6606;49.154;9.280;2022-11-15T04:01:53;3.17;;;2.07;;
13079;SDS011;6606;49.154;9.280;2022-11-15T04:04:38;3.67;;;2.30;;
13079;SDS011;6606;49.154;9.280;2022-11-15T04:07:24;2.93;;;2.17;;
13079;SDS011;6606;49.154;9.280;2022-11-15T04:10:09;3.03;;;1.93;;
13079;SDS011;6606;49.154;9.280;2022-11-15T04:12:56;4.20;;;2.30;;
13079;SDS011;6606;49.154;9.280;2022-11-15T04:15:41;4.67;;;2.37;;
13079;SDS011;6606;49.154;9.280;2022-11-15T04:18:26;3.80;;;2.30;;
13079;SDS011;6606;49.154;9.280;2022-11-15T04:21:12;4.27;;;2.53;;
13079;SDS011;6606;49.154;9.280;2022-11-15T04:24:14;3.77;;;2.47;;
13079;SDS011;6606;49.154;9.280;2022-11-15T04:27:00;4.43;;;2.50;;
13079;SDS011;6606;49.154;9.280;2022-11-15T04:29:46;4.67;;;2.70;;
13079;SDS011;6606;49.154;9.280;2022-11-15T04:32:31;3.53;;;2.83;;
13079;SDS011;6606;49.154;9.280;2022-11-15T04:35:17;4.63;;;2.60;;
13079;SDS011;6606;49.154;9.280;2022-11-15T04:38:03;5.53;;;2.90;;
13079;SDS011;6606;49.154;9.280;2022-11-15T04:40:49;5.20;;;2.80;;
13079;SDS011;6606;49.154;9.280;2022-11-15T04:43:35;4.50;;;2.80;;
13079;SDS011;6606;49.154;9.280;2022-11-15T04:46:21;3.47;;;2.70;;
13079;SDS011;6606;49.154;9.280;2022-11-15T04:49:07;4.70;;;3.40;;
13079;SDS011;6606;49.154;9.280;2022-11-15T04:51:53;5.53;;;2.77;;
13079;SDS011;6606;49.154;9.280;2022-11-15T04:54:38;5.10;;;2.70;;
13079;SDS011;6606;49.154;9.280;2022-11-15T04:57:25;4.60;;;3.13;;
13079;SDS011;6606;49.154;9.280;2022-11-15T05:00:11;4.67;;;3.27;;
13079;SDS011;6606;49.154;9.280;2022-11-15T05:03:00;5.10;;;3.83;;
13079;SDS011;6606;49.154;9.280;2022-11-15T05:06:02;7.97;;;4.00;;
13079;SDS011;6606;49.154;9.280;2022-11-15T05:08:48;4.53;;;3.13;;
13079;SDS011;6606;49.154;9.280;2022-11-15T05:11:33;4.50;;;2.93;;
13079;SDS011;6606;49.154;9.280;2022-11-15T05:14:19;6.40;;;3.93;;
13079;SDS011;6606;49.154;9.280;2022-11-15T05:17:04;4.37;;;3.53;;
13079;SDS011;6606;49.154;9.280;2022-11-15T05:19:51;8.03;;;4.00;;
13079;SDS011;6606;49.154;9.280;2022-11-15T05:22:36;6.57;;;3.60;;
13079;SDS011;6606;49.154;9.280;2022-11-15T05:25:21;4.67;;;3.40;;
13079;SDS011;6606;49.154;9.280;2022-11-15T05:28:07;8.60;;;3.90;;
13079;SDS011;6606;49.154;9.280;2022-11-15T05:30:52;6.43;;;3.63;;
13079;SDS011;6606;49.154;9.280;2022-11-15T05:33:37;4.47;;;3.27;;
13079;SDS011;6606;49.154;9.280;2022-11-15T05:36:27;5.07;;;3.40;;
13079;SDS011;6606;49.154;9.280;2022-11-15T05:39:15;7.33;;;3.97;;
13079;SDS011;6606;49.154;9.280;2022-11-15T05:42:01;6.50;;;4.03;;
13079;SDS011;6606;49.154;9.280;2022-11-15T05:44:50;6.13;;;3.50;;
13079;SDS011;6606;49.154;9.280;2022-11-15T05:47:36;6.33;;;3.80;;
13079;SDS011;6606;49.154;9.280;2022-11-15T05:50:24;5.47;;;4.00;;
13079;SDS011;6606;49.154;9.280;2022-11-15T05:53:11;4.63;;;3.30;;
13079;SDS011;6606;49.154;9.280;2022-11-15T05:55:58;5.23;;;3.70;;
13079;SDS011;6606;49.154;9.280;2022-11-15T05:58:44;8.77;;;4.10;;
13079;SDS011;6606;49.154;9.280;2022-11-15T06:01:29;6.30;;;3.60;;
13079;SDS011;6606;49.154;9.280;2022-11-15T06:04:14;3.97;;;3.37;;
13079;SDS011;6606;49.154;9.280;2022-11-15T06:07:00;4.93;;;3.60;;
13079;SDS011;6606;49.154;9.280;2022-11-15T06:09:46;6.20;;;3.70;;
13079;SDS011;6606;49.154;9.280;2022-11-15T06:12:32;7.90;;;4.40;;
13079;SDS011;6606;49.154;9.280;2022-11-15T06:15:17;6.03;;;4.20;;
13079;SDS011;6606;49.154;9.280;2022-11-15T06:18:02;8.23;;;4.33;;
13079;SDS011;6606;49.154;9.280;2022-11-15T06:20:48;7.40;;;4.10;;
13079;SDS011;6606;49.154;9.280;2022-11-15T06:23:33;12.77;;;4.27;;
13079;SDS011;6606;49.154;9.280;2022-11-15T06:26:20;7.67;;;3.67;;
13079;SDS011;6606;49.154;9.280;2022-11-15T06:29:06;8.67;;;4.30;;
13079;SDS011;6606;49.154;9.280;2022-11-15T06:31:51;11.70;;;4.83;;
13079;SDS011;6606;49.154;9.280;2022-11-15T06:34:37;7.30;;;4.43;;
13079;SDS011;6606;49.154;9.280;2022-11-15T06:37:22;6.23;;;4.73;;
13079;SDS011;6606;49.154;9.280;2022-11-15T06:40:08;6.23;;;4.00;;
13079;SDS011;6606;49.154;9.280;2022-11-15T06:42:58;7.13;;;4.30;;
13079;SDS011;6606;49.154;9.280;2022-11-15T06:45:44;7.87;;;4.80;;
13079;SDS011;6606;49.154;9.280;2022-11-15T06:48:29;10.70;;;4.13;;
13079;SDS011;6606;49.154;9.280;2022-11-15T06:51:15;6.43;;;4.70;;
13079;SDS011;6606;49.154;9.280;2022-11-15T06:54:01;9.30;;;5.00;;
13079;SDS011;6606;49.154;9.280;2022-11-15T06:56:46;11.40;;;4.77;;
13079;SDS011;6606;49.154;9.280;2022-11-15T06:59:33;9.87;;;4.53;;
13079;SDS011;6606;49.154;9.280;2022-11-15T07:02:18;9.27;;;4.83;;
13079;SDS011;6606;49.154;9.280;2022-11-15T07:05:04;8.37;;;4.80;;
13079;SDS011;6606;49.154;9.280;2022-11-15T07:07:53;8.03;;;5.20;;
13079;SDS011;6606;49.154;9.280;2022-11-15T07:10:39;10.50;;;5.93;;
13079;SDS011;6606;49.154;9.280;2022-11-15T07:13:24;8.70;;;5.87;;
13079;SDS011;6606;49.154;9.280;2022-11-15T07:16:11;9.70;;;6.20;;
13079;SDS011;6606;49.154;9.280;2022-11-15T07:18:57;9.90;;;5.57;;
13079;SDS011;6606;49.154;9.280;2022-11-15T07:21:42;7.80;;;5.63;;
13079;SDS011;6606;49.154;9.280;2022-11-15T07:24:27;10.17;;;6.03;;
13079;SDS011;6606;49.154;9.280;2022-11-15T07:27:13;8.23;;;5.53;;
13079;SDS011;6606;49.154;9.280;2022-11-15T07:29:58;11.90;;;5.77;;
13079;SDS011;6606;49.154;9.280;2022-11-15T07:32:45;10.10;;;6.43;;
13079;SDS011;6606;49.154;9.280;2022-11-15T07:35:31;10.93;;;5.80;;
13079;SDS011;6606;49.154;9.280;2022-11-15T07:38:16;12.83;;;6.60;;
13079;SDS011;6606;49.154;9.280;2022-11-15T07:41:04;12.07;;;6.93;;
13079;SDS011;6606;49.154;9.280;2022-11-15T07:43:50;9.70;;;6.87;;
13079;SDS011;6606;49.154;9.280;2022-11-15T07:46:36;9.00;;;6.03;;
13079;SDS011;6606;49.154;9.280;2022-11-15T07:49:22;8.97;;;6.53;;
13079;SDS011;6606;49.154;9.280;2022-11-15T07:52:07;9.67;;;6.70;;
13079;SDS011;6606;49.154;9.280;2022-11-15T07:54:53;10.33;;;6.60;;
13079;SDS011;6606;49.154;9.280;2022-11-15T07:57:38;11.33;;;6.30;;
13079;SDS011;6606;49.154;9.280;2022-11-15T08:00:23;9.07;;;5.43;;
13079;SDS011;6606;49.154;9.280;2022-11-15T08:03:09;7.93;;;5.40;;
13079;SDS011;6606;49.154;9.280;2022-11-15T08:05:57;8.17;;;5.13;;
13079;SDS011;6606;49.154;9.280;2022-11-15T08:08:42;10.23;;;5.53;;
13079;SDS011;6606;49.154;9.280;2022-11-15T08:11:27;11.80;;;5.53;;
13079;SDS011;6606;49.154;9.280;2022-11-15T08:14:14;12.67;;;5.70;;
13079;SDS011;6606;49.154;9.280;2022-11-15T08:16:59;7.73;;;5.43;;
13079;SDS011;6606;49.154;9.280;2022-11-15T08:19:44;12.10;;;6.40;;
13079;SDS011;6606;49.154;9.280;2022-11-15T08:22:31;12.80;;;6.50;;
13079;SDS011;6606;49.154;9.280;2022-11-15T08:25:17;11.20;;;6.73;;
13079;SDS011;6606;49.154;9.280;2022-11-15T08:28:03;15.17;;;7.50;;
13079;SDS011;6606;49.154;9.280;2022-11-15T08:30:50;12.23;;;7.17;;
13079;SDS011;6606;49.154;9.280;2022-11-15T08:33:36;13.53;;;7.20;;
13079;SDS011;6606;49.154;9.280;2022-11-15T08:36:21;11.27;;;6.40;;
13079;SDS011;6606;49.154;9.280;2022-11-15T08:39:10;12.90;;;6.13;;
13079;SDS011;6606;49.154;9.280;2022-11-15T08:41:56;12.40;;;6.43;;
13079;SDS011;6606;49.154;9.280;2022-11-15T08:44:41;11.00;;;5.60;;
13079;SDS011;6606;49.154;9.280;2022-11-15T08:47:26;11.87;;;5.70;;
13079;SDS011;6606;49.154;9.280;2022-11-15T08:50:12;9.57;;;5.40;;
13079;SDS011;6606;49.154;9.280;2022-11-15T08:52:57;10.10;;;5.43;;
13079;SDS011;6606;49.154;9.280;2022-11-15T08:55:44;7.50;;;5.33;;
13079;SDS011;6606;49.154;9.280;2022-11-15T08:58:29;8.30;;;5.17;;
13079;SDS011;6606;49.154;9.280;2022-11-15T09:01:15;8.40;;;4.50;;
13079;SDS011;6606;49.154;9.280;2022-11-15T09:04:01;6.20;;;4.43;;
13079;SDS011;6606;49.154;9.280;2022-11-15T09:06:47;7.10;;;4.57;;
13079;SDS011;6606;49.154;9.280;2022-11-15T09:09:32;7.73;;;5.07;;
13079;SDS011;6606;49.154;9.280;2022-11-15T09:12:19;8.93;;;4.80;;
13079;SDS011;6606;49.154;9.280;2022-11-15T09:15:05;7.60;;;4.80;;
13079;SDS011;6606;49.154;9.280;2022-11-15T09:17:51;6.90;;;4.50;;
13079;SDS011;6606;49.154;9.280;2022-11-15T09:20:36;7.20;;;4.00;;
13079;SDS011;6606;49.154;9.280;2022-11-15T09:23:21;6.13;;;4.37;;
13079;SDS011;6606;49.154;9.280;2022-11-15T09:26:07;8.00;;;4.23;;
13079;SDS011;6606;49.154;9.280;2022-11-15T09:28:53;9.57;;;4.27;;
13079;SDS011;6606;49.154;9.280;2022-11-15T09:31:39;7.57;;;4.40;;
13079;SDS011;6606;49.154;9.280;2022-11-15T09:34:24;8.20;;;3.93;;
13079;SDS011;6606;49.154;9.280;2022-11-15T09:37:09;5.23;;;3.47;;
13079;SDS011;6606;49.154;9.280;2022-11-15T09:39:56;5.30;;;3.50;;
13079;SDS011;6606;49.154;9.280;2022-11-15T09:42:58;6.37;;;3.93;;
13079;SDS011;6606;49.154;9.280;2022-11-15T09:45:57;8.00;;;4.20;;
13079;SDS011;6606;49.154;9.280;2022-11-15T09:48:51;7.53;;;4.03;;
13079;SDS011;6606;49.154;9.280;2022-11-15T09:51:40;9.33;;;4.20;;
13079;SDS011;6606;49.154;9.280;2022-11-15T09:54:16;6.07;;;4.23;;
13079;SDS011;6606;49.154;9.280;2022-11-15T09:56:49;9.10;;;3.70;;
13079;SDS011;6606;49.154;9.280;2022-11-15T09:59:21;3.67;;;3.20;;
13079;SDS011;6606;49.154;9.280;2022-11-15T10:01:59;7.70;;;4.07;;
13079;SDS011;6606;49.154;9.280;2022-11-15T10:04:31;7.87;;;4.43;;
13079;SDS011;6606;49.154;9.280;2022-11-15T10:07:02;8.10;;;4.50;;
13079;SDS011;6606;49.154;9.280;2022-11-15T10:09:34;8.10;;;4.40;;
13079;SDS011;6606;49.154;9.280;2022-11-15T10:12:08;7.93;;;3.80;;
13079;SDS011;6606;49.154;9.280;2022-11-15T10:14:37;6.13;;;4.00;;
13079;SDS011;6606;49.154;9.280;2022-11-15T10:20:05;7.77;;;4.00;;
13079;SDS011;6606;49.154;9.280;2022-11-15T10:22:39;6.73;;;3.63;;
13079;SDS011;6606;49.154;9.280;2022-11-15T10:25:16;6.53;;;3.70;;
13079;SDS011;6606;49.154;9.280;2022-11-15T10:27:45;5.33;;;3.40;;
13079;SDS011;6606;49.154;9.280;2022-11-15T10:30:18;7.00;;;4.20;;
13079;SDS011;6606;49.154;9.280;2022-11-15T10:32:51;7.73;;;3.47;;
13079;SDS011;6606;49.154;9.280;2022-11-15T10:35:19;7.90;;;3.80;;
13079;SDS011;6606;49.154;9.280;2022-11-15T10:37:50;5.47;;;3.63;;
13079;SDS011;6606;49.154;9.280;2022-11-15T10:40:18;5.53;;;3.67;;
13079;SDS011;6606;49.154;9.280;2022-11-15T10:42:47;7.70;;;3.83;;
13079;SDS011;6606;49.154;9.280;2022-11-15T10:50:53;5.27;;;3.53;;
13079;SDS011;6606;49.154;9.280;2022-11-15T10:53:22;6.27;;;4.00;;
13079;SDS011;6606;49.154;9.280;2022-11-15T10:55:54;6.30;;;4.20;;
13079;SDS011;6606;49.154;9.280;2022-11-15T10:58:28;7.13;;;3.97;;
13079;SDS011;6606;49.154;9.280;2022-11-15T11:01:08;5.80;;;3.70;;
13079;SDS011;6606;49.154;9.280;2022-11-15T11:03:36;7.97;;;4.37;;
13079;SDS011;6606;49.154;9.280;2022-11-15T11:06:07;6.40;;;4.00;;
13079;SDS011;6606;49.154;9.280;2022-11-15T11:08:35;7.40;;;4.13;;
13079;SDS011;6606;49.154;9.280;2022-11-15T11:11:03;7.80;;;4.20;;
13079;SDS011;6606;49.154;9.280;2022-11-15T11:13:32;6.50;;;4.17;;
13079;SDS011;6606;49.154;9.280;2022-11-15T11:16:05;7.70;;;4.40;;
13079;SDS011;6606;49.154;9.280;2022-11-15T11:18:47;7.07;;;4.03;;
13079;SDS011;6606;49.154;9.280;2022-11-15T11:21:25;8.87;;;4.37;;
13079;SDS011;6606;49.154;9.280;2022-11-15T11:23:59;6.70;;;4.17;;
13079;SDS011;6606;49.154;9.280;2022-11-15T11:26:35;9.90;;;4.70;;
13079;SDS011;6606;49.154;9.280;2022-11-15T11:29:12;7.97;;;4.30;;
13079;SDS011;6606;49.154;9.280;2022-11-15T11:31:55;8.60;;;4.30;;
13079;SDS011;6606;49.154;9.280;2022-11-15T11:34:32;7.00;;;4.20;;
13079;SDS011;6606;49.154;9.280;2022-11-15T11:37:11;7.67;;;4.67;;
13079;SDS011;6606;49.154;9.280;2022-11-15T11:39:45;7.47;;;4.10;;
13079;SDS011;6606;49.154;9.280;2022-11-15T11:42:24;6.17;;;3.87;;
13079;SDS011;6606;49.154;9.280;2022-11-15T11:44:57;8.90;;;4.53;;
13079;SDS011;6606;49.154;9.280;2022-11-15T11:47:32;7.17;;;4.63;;
13079;SDS011;6606;49.154;9.280;2022-11-15T11:50:10;7.83;;;4.37;;
13079;SDS011;6606;49.154;9.280;2022-11-15T11:52:43;7.07;;;4.20;;
13079;SDS011;6606;49.154;9.280;2022-11-15T11:55:23;8.13;;;4.53;;
13079;SDS011;6606;49.154;9.280;2022-11-15T11:57:56;8.20;;;4.70;;
13079;SDS011;6606;49.154;9.280;2022-11-15T12:00:31;10.13;;;4.57;;
13079;SDS011;6606;49.154;9.280;2022-11-15T12:03:03;10.63;;;5.37;;
13079;SDS011;6606;49.154;9.280;2022-11-15T12:05:36;11.55;;;4.60;;
13079;SDS011;6606;49.154;9.280;2022-11-15T12:08:22;7.05;;;4.47;;
13079;SDS011;6606;49.154;9.280;2022-11-15T12:10:56;7.80;;;4.60;;
13079;SDS011;6606;49.154;9.280;2022-11-15T12:13:28;8.82;;;4.50;;
13079;SDS011;6606;49.154;9.280;2022-11-15T12:16:00;9.73;;;4.43;;
13079;SDS011;6606;49.154;9.280;2022-11-15T12:18:30;9.65;;;4.60;;
13079;SDS011;6606;49.154;9.280;2022-11-15T12:20:58;8.65;;;4.57;;
13079;SDS011;6606;49.154;9.280;2022-11-15T12:23:30;9.20;;;4.60;;
13079;SDS011;6606;49.154;9.280;2022-11-15T12:26:04;6.68;;;4.25;;
13079;SDS011;6606;49.154;9.280;2022-11-15T12:28:35;8.27;;;4.15;;
13079;SDS011;6606;49.154;9.280;2022-11-15T12:31:10;9.20;;;4.22;;
13079;SDS011;6606;49.154;9.280;2022-11-15T12:33:41;6.55;;;4.40;;
13079;SDS011;6606;49.154;9.280;2022-11-15T12:36:10;6.10;;;4.50;;
13079;SDS011;6606;49.154;9.280;2022-11-15T12:41:29;6.47;;;4.65;;
13079;SDS011;6606;49.154;9.280;2022-11-15T12:43:58;6.95;;;4.40;;
13079;SDS011;6606;49.154;9.280;2022-11-15T12:49:46;7.22;;;4.00;;
13079;SDS011;6606;49.154;9.280;2022-11-15T12:52:13;6.15;;;3.65;;
13079;SDS011;6606;49.154;9.280;2022-11-15T12:55:01;5.97;;;4.07;;
13079;SDS011;6606;49.154;9.280;2022-11-15T12:57:49;6.35;;;3.75;;
13079;SDS011;6606;49.154;9.280;2022-11-15T13:03:27;7.70;;;4.20;;
13079;SDS011;6606;49.154;9.280;2022-11-15T13:05:59;8.15;;;4.25;;
13079;SDS011;6606;49.154;9.280;2022-11-15T13:08:41;9.02;;;4.10;;
13079;SDS011;6606;49.154;9.280;2022-11-15T13:20:12;9.48;;;3.63;;
13079;SDS011;6606;49.154;9.280;2022-11-15T13:22:47;4.57;;;3.40;;
13079;SDS011;6606;49.154;9.280;2022-11-15T13:28:20;5.90;;;3.20;;
13079;SDS011;6606;49.154;9.280;2022-11-15T13:30:51;3.88;;;2.83;;
13079;SDS011;6606;49.154;9.280;2022-11-15T13:33:20;5.88;;;3.38;;
13079;SDS011;6606;49.154;9.280;2022-11-15T13:35:49;8.52;;;3.40;;
13079;SDS011;6606;49.154;9.280;2022-11-15T13:38:18;5.95;;;3.10;;
13079;SDS011;6606;49.154;9.280;2022-11-15T13:40:51;7.80;;;3.53;;
13079;SDS011;6606;49.154;9.280;2022-11-15T13:43:23;3.87;;;2.93;;
13079;SDS011;6606;49.154;9.280;2022-11-15T13:46:05;3.90;;;2.80;;
13079;SDS011;6606;49.154;9.280;2022-11-15T13:48:32;4.53;;;3.20;;
13079;SDS011;6606;49.154;9.280;2022-11-15T13:50:59;5.07;;;3.42;;
13079;SDS011;6606;49.154;9.280;2022-11-15T13:53:27;5.72;;;3.60;;
13079;SDS011;6606;49.154;9.280;2022-11-15T13:55:56;6.27;;;3.60;;
13079;SDS011;6606;49.154;9.280;2022-11-15T13:58:25;7.03;;;3.53;;
13079;SDS011;6606;49.154;9.280;2022-11-15T14:00:58;6.80;;;3.80;;
13079;SDS011;6606;49.154;9.280;2022-11-15T14:03:28;5.30;;;3.87;;
13079;SDS011;6606;49.154;9.280;2022-11-15T14:06:08;7.23;;;4.67;;
13079;SDS011;6606;49.154;9.280;2022-11-15T14:08:37;11.43;;;5.27;;
13079;SDS011;6606;49.154;9.280;2022-11-15T14:11:08;10.43;;;5.37;;
13079;SDS011;6606;49.154;9.280;2022-11-15T14:13:39;11.40;;;5.83;;
13079;SDS011;6606;49.154;9.280;2022-11-15T14:16:13;8.70;;;5.30;;
13079;SDS011;6606;49.154;9.280;2022-11-15T14:18:44;9.33;;;4.90;;
13079;SDS011;6606;49.154;9.280;2022-11-15T14:21:13;6.83;;;4.73;;
13079;SDS011;6606;49.154;9.280;2022-11-15T14:23:40;7.53;;;4.30;;
13079;SDS011;6606;49.154;9.280;2022-11-15T14:26:11;7.57;;;4.43;;
13079;SDS011;6606;49.154;9.280;2022-11-15T14:28:52;7.63;;;4.63;;
13079;SDS011;6606;49.154;9.280;2022-11-15T14:31:20;6.97;;;4.23;;
13079;SDS011;6606;49.154;9.280;2022-11-15T14:33:49;7.23;;;4.03;;
13079;SDS011;6606;49.154;9.280;2022-11-15T14:36:17;4.83;;;3.70;;
13079;SDS011;6606;49.154;9.280;2022-11-15T14:38:45;6.13;;;3.50;;
13079;SDS011;6606;49.154;9.280;2022-11-15T14:41:17;4.50;;;3.40;;
13079;SDS011;6606;49.154;9.280;2022-11-15T14:43:46;6.77;;;3.80;;
13079;SDS011;6606;49.154;9.280;2022-11-15T14:46:13;6.00;;;4.20;;
13079;SDS011;6606;49.154;9.280;2022-11-15T14:48:39;5.77;;;3.83;;
13079;SDS011;6606;49.154;9.280;2022-11-15T14:51:11;5.90;;;4.10;;
13079;SDS011;6606;49.154;9.280;2022-11-15T14:53:39;6.00;;;3.63;;
13079;SDS011;6606;49.154;9.280;2022-11-15T14:56:06;6.57;;;4.03;;
13079;SDS011;6606;49.154;9.280;2022-11-15T14:58:33;6.93;;;3.80;;
13079;SDS011;6606;49.154;9.280;2022-11-15T15:00:59;5.43;;;3.87;;
13079;SDS011;6606;49.154;9.280;2022-11-15T15:03:28;6.70;;;3.73;;
13079;SDS011;6606;49.154;9.280;2022-11-15T15:05:55;6.03;;;3.63;;
13079;SDS011;6606;49.154;9.280;2022-11-15T15:08:23;10.90;;;4.23;;
13079;SDS011;6606;49.154;9.280;2022-11-15T15:10:50;7.30;;;3.63;;
13079;SDS011;6606;49.154;9.280;2022-11-15T15:13:18;5.90;;;3.87;;
13079;SDS011;6606;49.154;9.280;2022-11-15T15:15:46;5.67;;;3.80;;
13079;SDS011;6606;49.154;9.280;2022-11-15T15:18:14;5.60;;;4.27;;
13079;SDS011;6606;49.154;9.280;2022-11-15T15:20:41;10.83;;;4.60;;
13079;SDS011;6606;49.154;9.280;2022-11-15T15:23:14;7.00;;;4.43;;
13079;SDS011;6606;49.154;9.280;2022-11-15T15:25:43;9.20;;;4.97;;
13079;SDS011;6606;49.154;9.280;2022-11-15T15:28:11;6.27;;;4.83;;
13079;SDS011;6606;49.154;9.280;2022-11-15T15:30:38;7.53;;;4.83;;
13079;SDS011;6606;49.154;9.280;2022-11-15T15:33:05;10.67;;;5.30;;
13079;SDS011;6606;49.154;9.280;2022-11-15T15:35:33;8.20;;;5.43;;
13079;SDS011;6606;49.154;9.280;2022-11-15T15:38:01;10.53;;;6.20;;
13079;SDS011;6606;49.154;9.280;2022-11-15T15:40:29;10.77;;;6.60;;
13079;SDS011;6606;49.154;9.280;2022-11-15T15:42:58;7.90;;;5.50;;
13079;SDS011;6606;49.154;9.280;2022-11-15T15:45:26;10.87;;;6.47;;
13079;SDS011;6606;49.154;9.280;2022-11-15T15:47:53;8.37;;;6.23;;
13079;SDS011;6606;49.154;9.280;2022-11-15T15:50:22;12.40;;;7.13;;
13079;SDS011;6606;49.154;9.280;2022-11-15T15:52:50;14.63;;;7.97;;
13079;SDS011;6606;49.154;9.280;2022-11-15T15:55:18;13.40;;;7.40;;
13079;SDS011;6606;49.154;9.280;2022-11-15T15:57:45;15.57;;;5.77;;
13079;SDS011;6606;49.154;9.280;2022-11-15T16:00:14;11.73;;;6.67;;
13079;SDS011;6606;49.154;9.280;2022-11-15T16:02:42;9.80;;;5.60;;
13079;SDS011;6606;49.154;9.280;2022-11-15T16:05:09;7.83;;;5.40;;
13079;SDS011;6606;49.154;9.280;2022-11-15T16:07:36;7.07;;;4.80;;
13079;SDS011;6606;49.154;9.280;2022-11-15T16:10:13;8.90;;;4.83;;
13079;SDS011;6606;49.154;9.280;2022-11-15T16:12:44;6.13;;;4.50;;
13079;SDS011;6606;49.154;9.280;2022-11-15T16:15:10;6.87;;;4.30;;
13079;SDS011;6606;49.154;9.280;2022-11-15T16:17:40;7.27;;;4.07;;
13079;SDS011;6606;49.154;9.280;2022-11-15T16:20:15;6.77;;;3.37;;
13079;SDS011;6606;49.154;9.280;2022-11-15T16:22:49;6.97;;;3.57;;
13079;SDS011;6606;49.154;9.280;2022-11-15T16:25:16;4.67;;;3.60;;
13079;SDS011;6606;49.154;9.280;2022-11-15T16:27:42;7.03;;;3.50;;
13079;SDS011;6606;49.154;9.280;2022-11-15T16:30:10;4.40;;;2.90;;
13079;SDS011;6606;49.154;9.280;2022-11-15T16:32:41;3.80;;;2.40;;
13079;SDS011;6606;49.154;9.280;2022-11-15T16:35:09;6.80;;;4.20;;
13079;SDS011;6606;49.154;9.280;2022-11-15T16:37:37;6.07;;;4.03;;
13079;SDS011;6606;49.154;9.280;2022-11-15T16:40:05;7.93;;;4.20;;
13079;SDS011;6606;49.154;9.280;2022-11-15T16:42:43;8.27;;;4.93;;
13079;SDS011;6606;49.154;9.280;2022-11-15T16:45:10;4.77;;;3.03;;
13079;SDS011;6606;49.154;9.280;2022-11-15T16:47:38;5.73;;;3.10;;
13079;SDS011;6606;49.154;9.280;2022-11-15T16:50:08;6.13;;;3.67;;
13079;SDS011;6606;49.154;9.280;2022-11-15T16:52:48;8.17;;;4.00;;